Time;durP1;ratioP1;P1;durP2;ratioP2;P2;SDS_P1;SDS_P2;PMS_P1;PMS_P2;Temp;Humidity;BMP_temperature;BMP_pressure;BME280_temperature;BME280_humidity;BME280_pressure;Samples;Min_cycle;Max_cycle;Signal;HPM_P1;HPM_P2
2023/05/22 00:00:06;;;;;;;;;;;;;;;;;;5037951;28;19909;-14
2023/05/22 00:02:32;;;;;;;;;;;;;;;;;;5037617;28;19910;-14
2023/05/22 00:04:59;;;;;;;;;;;;;;;;;;5037488;28;19929;-14
2023/05/22 00:07:26;;;;;;;;;;;;;;;;;;5037570;28;19940;-13
2023/05/22 00:09:52;;;;;;;;;;;;;;;;;;5037449;28;20307;-13
2023/05/22 00:12:18;;;;;;;;;;;;;;;;;;5036288;28;20290;-13
2023/05/22 00:14:44;;;;;;;;;;;;;;;;;;5037201;28;19916;-14
2023/05/22 00:17:13;;;;;;;;;;;;;;;;;;5037407;28;19920;-14
2023/05/22 00:19:39;;;;;;;;;;;;;;;;;;5037304;28;20337;-14
2023/05/22 00:22:05;;;;;;;;;;;;;;;;;;5036258;28;19915;-13
2023/05/22 00:24:31;;;;;;;;;;;;;;;;;;5037228;28;19917;-13
2023/05/22 00:26:57;;;;;;;;;;;;;;;;;;5037183;28;19917;-14
2023/05/22 00:29:23;;;;;;;;;;;;;;;;;;5036205;28;19955;-14
2023/05/22 00:31:49;;;;;;;;;;;;;;;;;;5037532;28;20328;-13
2023/05/22 00:34:15;;;;;;;;;;;;;;;;;;5037051;28;19913;-14
2023/05/22 00:36:41;;;;;;;;;;;;;;;;;;5036968;28;19916;-14
2023/05/22 00:39:08;;;;;;;;;;;;;;;;;;5036905;28;19917;-12
2023/05/22 00:41:34;;;;;;;;;;;;;;;;;;5036928;28;19910;-13
2023/05/22 00:44:01;;;;;;;;;;;;;;;;;;5036797;28;19910;-13
2023/05/22 00:46:27;;;;;;;;;;;;;;;;;;5036825;28;19912;-14
2023/05/22 00:48:53;;;;;;;;;;;;;;;;;;5036786;28;19916;-14
2023/05/22 00:51:19;;;;;;;;;;;;;;;;;;5037311;28;19924;-13
2023/05/22 00:53:45;;;;;;;;;;;;;;;;;;5036612;28;19909;-14
2023/05/22 00:56:11;;;;;;;;;;;;;;;;;;5036677;28;20344;-14
2023/05/22 00:58:37;;;;;;;;;;;;;;;;;;5035543;28;19927;-14
2023/05/22 01:01:06;;;;;;;;;;;;;;;;;;5036779;28;19909;-13
2023/05/22 01:03:32;;;;;;;;;;;;;;;;;;5036393;28;19921;-14
2023/05/22 01:05:58;;;;;;;;;;;;;;;;;;5036408;28;19913;-15
2023/05/22 01:08:24;;;;;;;;;;;;;;;;;;5036419;28;20328;-13
2023/05/22 01:10:50;;;;;;;;;;;;;;;;;;5036657;28;19909;-14
2023/05/22 01:13:16;;;;;;;;;;;;;;;;;;5035231;28;20009;-13
2023/05/22 01:15:42;;;;;;;;;;;;;;;;;;5036570;28;20000;-13
2023/05/22 01:18:11;;;;;;;;;;;;;;;;;;5035534;28;20197;-14
2023/05/22 01:20:37;;;;;;;;;;;;;;;;;;5035296;28;19909;-14
2023/05/22 01:23:03;;;;;;;;;;;;;;;;;;5036600;28;20355;-14
2023/05/22 01:25:29;;;;;;;;;;;;;;;;;;5035675;28;20326;-14
2023/05/22 01:27:55;;;;;;;;;;;;;;;;;;5036325;28;20244;-14
2023/05/22 01:30:21;;;;;;;;;;;;;;;;;;5036262;28;20306;-14
2023/05/22 01:32:47;;;;;;;;;;;;;;;;;;5035921;28;19916;-14
2023/05/22 01:35:13;;;;;;;;;;;;;;;;;;5035908;28;19917;-14
2023/05/22 01:37:39;;;;;;;;;;;;;;;;;;5035858;28;19920;-13
2023/05/22 01:40:05;;;;;;;;;;;;;;;;;;5036128;28;20344;-14
2023/05/22 01:42:32;;;;;;;;;;;;;;;;;;5035735;28;19921;-14
2023/05/22 01:44:58;;;;;;;;;;;;;;;;;;5035950;28;19920;-14
2023/05/22 01:47:24;;;;;;;;;;;;;;;;;;5035741;28;19914;-14
2023/05/22 01:49:50;;;;;;;;;;;;;;;;;;5035630;28;20252;-14
2023/05/22 01:52:17;;;;;;;;;;;;;;;;;;5035588;28;19919;-14
2023/05/22 01:54:44;;;;;;;;;;;;;;;;;;5035570;28;20225;-14
2023/05/22 01:57:10;;;;;;;;;;;;;;;;;;5035834;28;20217;-14
2023/05/22 01:59:36;;;;;;;;;;;;;;;;;;5035460;28;19927;-13
2023/05/22 02:02:02;;;;;;;;;;;;;;;;;;5034433;28;20210;-14
2023/05/22 02:04:28;;;;;;;;;;;;;;;;;;5035393;28;19917;-14
2023/05/22 02:06:54;;;;;;;;;;;;;;;;;;5035683;28;19910;-14
2023/05/22 02:09:21;;;;;;;;;;;;;;;;;;5034307;28;19909;-14
2023/05/22 02:11:46;;;;;;;;;;;;;;;;;;5035321;28;19910;-13
2023/05/22 02:14:12;;;;;;;;;;;;;;;;;;5035147;28;19986;-14
2023/05/22 02:16:38;;;;;;;;;;;;;;;;;;5035139;28;19909;-14
2023/05/22 02:19:04;;;;;;;;;;;;;;;;;;5035062;28;19927;-15
2023/05/22 02:21:30;;;;;;;;;;;;;;;;;;5035113;28;19909;-14
2023/05/22 02:23:56;;;;;;;;;;;;;;;;;;5035012;28;20023;-14
2023/05/22 02:26:22;;;;;;;;;;;;;;;;;;5035111;28;19932;-14
2023/05/22 02:28:48;;;;;;;;;;;;;;;;;;5035035;28;20004;-14
2023/05/22 02:31:15;;;;;;;;;;;;;;;;;;5035037;28;19916;-14
2023/05/22 02:33:41;;;;;;;;;;;;;;;;;;5035075;28;19955;-14
2023/05/22 02:36:09;;;;;;;;;;;;;;;;;;5034433;28;19952;-14
2023/05/22 02:38:35;;;;;;;;;;;;;;;;;;5034828;28;19967;-14
2023/05/22 02:41:01;;;;;;;;;;;;;;;;;;5034819;28;19941;-14
2023/05/22 02:43:27;;;;;;;;;;;;;;;;;;5034732;28;19992;-14
2023/05/22 02:45:53;;;;;;;;;;;;;;;;;;5034797;28;19909;-16
2023/05/22 02:48:19;;;;;;;;;;;;;;;;;;5034809;28;20248;-13
2023/05/22 02:50:47;;;;;;;;;;;;;;;;;;5034789;28;19916;-14
2023/05/22 02:53:14;;;;;;;;;;;;;;;;;;5034710;28;19913;-14
2023/05/22 02:55:40;;;;;;;;;;;;;;;;;;5034698;28;19946;-13
2023/05/22 02:58:10;;;;;;;;;;;;;;;;;;5035164;28;20279;-15
2023/05/22 03:00:36;;;;;;;;;;;;;;;;;;5034671;28;19909;-13
2023/05/22 03:03:02;;;;;;;;;;;;;;;;;;5034411;28;19916;-14
2023/05/22 03:05:28;;;;;;;;;;;;;;;;;;5034929;28;19913;-15
2023/05/22 03:07:54;;;;;;;;;;;;;;;;;;5034545;28;19910;-13
2023/05/22 03:10:20;;;;;;;;;;;;;;;;;;5033649;28;20020;-13
2023/05/22 03:12:47;;;;;;;;;;;;;;;;;;5034494;28;20007;-14
2023/05/22 03:15:13;;;;;;;;;;;;;;;;;;5034589;28;19988;-14
2023/05/22 03:17:39;;;;;;;;;;;;;;;;;;5033549;28;19967;-14
2023/05/22 03:20:05;;;;;;;;;;;;;;;;;;5034410;28;20356;-14
2023/05/22 03:22:31;;;;;;;;;;;;;;;;;;5034732;28;19932;-14
2023/05/22 03:24:57;;;;;;;;;;;;;;;;;;5034433;28;19910;-13
2023/05/22 03:27:23;;;;;;;;;;;;;;;;;;5034379;28;19909;-14
2023/05/22 03:29:49;;;;;;;;;;;;;;;;;;5034408;28;19913;-14
2023/05/22 03:32:15;;;;;;;;;;;;;;;;;;5034524;28;19948;-14
2023/05/22 03:34:42;;;;;;;;;;;;;;;;;;5034566;28;20355;-14
2023/05/22 03:37:08;;;;;;;;;;;;;;;;;;5034334;28;19913;-13
2023/05/22 03:39:34;;;;;;;;;;;;;;;;;;5033167;28;19970;-14
2023/05/22 03:42:00;;;;;;;;;;;;;;;;;;5033025;28;19924;-14
2023/05/22 03:44:26;;;;;;;;;;;;;;;;;;5034105;28;19987;-14
2023/05/22 03:46:51;;;;;;;;;;;;;;;;;;5035202;28;20332;-13
2023/05/22 03:49:17;;;;;;;;;;;;;;;;;;5037791;28;19913;-15
2023/05/22 03:51:43;;;;;;;;;;;;;;;;;;5037708;28;19916;-15
2023/05/22 03:54:09;;;;;;;;;;;;;;;;;;5037600;28;19913;-16
2023/05/22 03:56:35;;;;;;;;;;;;;;;;;;5037693;28;19909;-14
2023/05/22 03:59:01;;;;;;;;;;;;;;;;;;5037487;28;19967;-14
2023/05/22 04:04:04;;;;;;;;;;;;;;;;;;5068559;22;20008;-22
2023/05/22 04:06:31;;;;;;;;;;;;;;;;;;5037418;28;20316;-21
2023/05/22 04:08:57;;;;;;;;;;;;;;;;;;5037124;28;19920;-20
2023/05/22 04:11:23;;;;;;;;;;;;;;;;;;5036173;28;19913;-21
2023/05/22 04:13:52;;;;;;;;;;;;;;;;;;5037265;28;19967;-22
2023/05/22 04:16:18;;;;;;;;;;;;;;;;;;5037642;28;19909;-21
2023/05/22 04:18:44;;;;;;;;;;;;;;;;;;5037160;28;19913;-22
2023/05/22 04:21:11;;;;;;;;;;;;;;;;;;5036083;28;19910;-21
2023/05/22 04:23:37;;;;;;;;;;;;;;;;;;5036103;28;20094;-22
2023/05/22 04:26:03;;;;;;;;;;;;;;;;;;5037485;28;20319;-22
2023/05/22 04:28:29;;;;;;;;;;;;;;;;;;5036867;28;20312;-19
2023/05/22 04:30:56;;;;;;;;;;;;;;;;;;5035934;28;19909;-20
2023/05/22 04:33:23;;;;;;;;;;;;;;;;;;5036947;28;19909;-22
2023/05/22 04:35:49;;;;;;;;;;;;;;;;;;5036852;28;19967;-21
2023/05/22 04:38:17;;;;;;;;;;;;;;;;;;5036592;28;19917;-21
2023/05/22 04:40:43;;;;;;;;;;;;;;;;;;5036872;28;20000;-21
2023/05/22 04:43:10;;;;;;;;;;;;;;;;;;5036889;28;19909;-20
2023/05/22 04:45:36;;;;;;;;;;;;;;;;;;5036524;28;19916;-21
2023/05/22 04:48:02;;;;;;;;;;;;;;;;;;5036721;28;19959;-20
2023/05/22 04:50:31;;;;;;;;;;;;;;;;;;5036516;28;19909;-20
2023/05/22 04:52:58;;;;;;;;;;;;;;;;;;5035381;28;20052;-20
2023/05/22 04:55:24;;;;;;;;;;;;;;;;;;5036409;28;19948;-21
2023/05/22 04:57:51;;;;;;;;;;;;;;;;;;5035251;28;20046;-21
2023/05/22 05:00:17;;;;;;;;;;;;;;;;;;5035642;28;19909;-22
2023/05/22 05:02:43;;;;;;;;;;;;;;;;;;5035985;28;19931;-21
2023/05/22 05:05:09;;;;;;;;;;;;;;;;;;5036444;28;19909;-20
2023/05/22 05:07:35;;;;;;;;;;;;;;;;;;5036198;28;19920;-21
2023/05/22 05:10:01;;;;;;;;;;;;;;;;;;5036294;28;20003;-25
2023/05/22 05:12:27;;;;;;;;;;;;;;;;;;5035212;28;20300;-20
2023/05/22 05:14:53;;;;;;;;;;;;;;;;;;5035932;28;19949;-22
2023/05/22 05:17:21;;;;;;;;;;;;;;;;;;5036460;28;20312;-20
2023/05/22 05:19:47;;;;;;;;;;;;;;;;;;5035937;28;19974;-21
2023/05/22 05:22:13;;;;;;;;;;;;;;;;;;5035713;28;20255;-22
2023/05/22 05:24:38;;;;;;;;;;;;;;;;;;5035695;28;19931;-20
2023/05/22 05:27:04;;;;;;;;;;;;;;;;;;5035480;28;19917;-20
2023/05/22 05:29:30;;;;;;;;;;;;;;;;;;5035926;28;19940;-22
2023/05/22 05:31:56;;;;;;;;;;;;;;;;;;5035711;28;19920;-21
2023/05/22 05:34:22;;;;;;;;;;;;;;;;;;5035646;28;19913;-21
2023/05/22 05:36:48;;;;;;;;;;;;;;;;;;5035726;28;19924;-21
2023/05/22 05:39:14;;;;;;;;;;;;;;;;;;5035509;28;20322;-21
2023/05/22 05:41:40;;;;;;;;;;;;;;;;;;5034507;28;19920;-20
2023/05/22 05:44:06;;;;;;;;;;;;;;;;;;5034354;28;19909;-21
2023/05/22 05:46:32;;;;;;;;;;;;;;;;;;5035410;28;19912;-22
2023/05/22 05:48:58;;;;;;;;;;;;;;;;;;5034990;28;19909;-21
2023/05/22 05:51:25;;;;;;;;;;;;;;;;;;5034938;28;19909;-22
2023/05/22 05:53:51;;;;;;;;;;;;;;;;;;5035183;28;19917;-23
2023/05/22 05:56:17;;;;;;;;;;;;;;;;;;5034749;28;19910;-21
2023/05/22 05:58:43;;;;;;;;;;;;;;;;;;5035047;28;19960;-22
2023/05/22 06:01:10;;;;;;;;;;;;;;;;;;5034647;28;19919;-21
2023/05/22 06:03:37;;;;;;;;;;;;;;;;;;5034432;28;19925;-20
2023/05/22 06:06:04;;;;;;;;;;;;;;;;;;5035218;28;19951;-21
2023/05/22 06:08:31;;;;;;;;;;;;;;;;;;5034920;28;19956;-19
2023/05/22 06:10:57;;;;;;;;;;;;;;;;;;5034896;28;20228;-21
2023/05/22 06:13:23;;;;;;;;;;;;;;;;;;5033929;28;19917;-22
2023/05/22 06:15:48;;;;;;;;;;;;;;;;;;5034079;28;19917;-20
2023/05/22 06:18:16;;;;;;;;;;;;;;;;;;5032767;28;19966;-22
2023/05/22 06:20:42;;;;;;;;;;;;;;;;;;5034234;28;19920;-20
2023/05/22 06:23:08;;;;;;;;;;;;;;;;;;5033838;28;19909;-20
2023/05/22 06:25:34;;;;;;;;;;;;;;;;;;5032744;28;19914;-21
2023/05/22 06:27:59;;;;;;;;;;;;;;;;;;5033794;28;20289;-21
2023/05/22 06:30:26;;;;;;;;;;;;;;;;;;5032785;28;19952;-20
2023/05/22 06:32:52;;;;;;;;;;;;;;;;;;5033659;28;20008;-21
2023/05/22 06:35:18;;;;;;;;;;;;;;;;;;5032578;28;20028;-21
2023/05/22 06:37:44;;;;;;;;;;;;;;;;;;5033801;28;20043;-23
2023/05/22 06:40:10;;;;;;;;;;;;;;;;;;5034013;28;19913;-22
2023/05/22 06:42:36;;;;;;;;;;;;;;;;;;5032803;28;19909;-20
2023/05/22 06:45:02;;;;;;;;;;;;;;;;;;5034184;28;19909;-22
2023/05/22 06:47:28;;;;;;;;;;;;;;;;;;5034405;28;19909;-21
2023/05/22 06:49:54;;;;;;;;;;;;;;;;;;5034209;28;19909;-21
2023/05/22 06:52:20;;;;;;;;;;;;;;;;;;5034210;28;19916;-23
2023/05/22 06:54:46;;;;;;;;;;;;;;;;;;5034460;28;19909;-21
2023/05/22 06:57:12;;;;;;;;;;;;;;;;;;5034149;28;20003;-23
2023/05/22 06:59:38;;;;;;;;;;;;;;;;;;5034166;28;19967;-21
2023/05/22 07:02:04;;;;;;;;;;;;;;;;;;5034053;28;19916;-20
2023/05/22 07:04:30;;;;;;;;;;;;;;;;;;5034221;28;20000;-20
2023/05/22 07:06:56;;;;;;;;;;;;;;;;;;5033418;28;19957;-21
2023/05/22 07:09:22;;;;;;;;;;;;;;;;;;5033892;28;19909;-23
2023/05/22 07:11:48;;;;;;;;;;;;;;;;;;5033707;28;20263;-23
2023/05/22 07:14:14;;;;;;;;;;;;;;;;;;5034143;28;20389;-21
2023/05/22 07:16:40;;;;;;;;;;;;;;;;;;5034146;28;19909;-20
2023/05/22 07:19:07;;;;;;;;;;;;;;;;;;5032491;28;19959;-22
2023/05/22 07:21:34;;;;;;;;;;;;;;;;;;5034130;28;19913;-22
2023/05/22 07:24:02;;;;;;;;;;;;;;;;;;5037864;28;19909;-19
2023/05/22 07:26:28;;;;;;;;;;;;;;;;;;5037618;28;19971;-20
2023/05/22 07:28:54;;;;;;;;;;;;;;;;;;5037947;28;20220;-20
2023/05/22 07:31:20;;;;;;;;;;;;;;;;;;5037608;28;19910;-21
2023/05/22 07:33:46;;;;;;;;;;;;;;;;;;5036346;28;19924;-21
2023/05/22 07:36:12;;;;;;;;;;;;;;;;;;5037423;28;19963;-22
2023/05/22 07:38:38;;;;;;;;;;;;;;;;;;5037883;28;19920;-23
2023/05/22 07:41:04;;;;;;;;;;;;;;;;;;5036549;28;19984;-20
2023/05/22 07:43:30;;;;;;;;;;;;;;;;;;5037344;28;19912;-21
2023/05/22 07:45:56;;;;;;;;;;;;;;;;;;5037379;28;19994;-20
2023/05/22 07:48:22;;;;;;;;;;;;;;;;;;5037274;28;20291;-22
2023/05/22 07:50:48;;;;;;;;;;;;;;;;;;5037414;28;19909;-22
2023/05/22 07:53:15;;;;;;;;;;;;;;;;;;5037305;28;20253;-22
2023/05/22 07:55:41;;;;;;;;;;;;;;;;;;5037161;28;19953;-21
2023/05/22 07:58:07;;;;;;;;;;;;;;;;;;5037527;28;19950;-21
2023/05/22 08:00:33;;;;;;;;;;;;;;;;;;5037547;28;19940;-20
2023/05/22 08:02:59;;;;;;;;;;;;;;;;;;5036977;28;19921;-23
2023/05/22 08:05:25;;;;;;;;;;;;;;;;;;5037051;28;19984;-23
2023/05/22 08:07:51;;;;;;;;;;;;;;;;;;5035932;28;19909;-22
2023/05/22 08:10:17;;;;;;;;;;;;;;;;;;5037034;28;20004;-20
2023/05/22 08:12:43;;;;;;;;;;;;;;;;;;5037287;28;20327;-27
2023/05/22 08:15:09;;;;;;;;;;;;;;;;;;5037262;28;19909;-20
2023/05/22 08:17:35;;;;;;;;;;;;;;;;;;5037171;28;19974;-22
2023/05/22 08:20:01;;;;;;;;;;;;;;;;;;5036703;28;19913;-24
2023/05/22 08:22:27;;;;;;;;;;;;;;;;;;5036662;28;19932;-23
2023/05/22 08:24:53;;;;;;;;;;;;;;;;;;5036692;28;20005;-23
2023/05/22 08:27:19;;;;;;;;;;;;;;;;;;5036926;28;19943;-21
2023/05/22 08:29:45;;;;;;;;;;;;;;;;;;5036626;28;19917;-20
2023/05/22 08:32:12;;;;;;;;;;;;;;;;;;5036697;28;19909;-22
2023/05/22 08:34:39;;;;;;;;;;;;;;;;;;5035170;28;19921;-22
2023/05/22 08:37:05;;;;;;;;;;;;;;;;;;5036584;28;19920;-20
2023/05/22 08:39:31;;;;;;;;;;;;;;;;;;5036308;28;20251;-22
2023/05/22 08:41:58;;;;;;;;;;;;;;;;;;5035252;28;19909;-22
2023/05/22 08:44:24;;;;;;;;;;;;;;;;;;5035118;28;20035;-21
2023/05/22 08:46:50;;;;;;;;;;;;;;;;;;5035619;28;19956;-20
2023/05/22 08:49:16;;;;;;;;;;;;;;;;;;5035729;28;19913;-21
2023/05/22 08:51:42;;;;;;;;;;;;;;;;;;5035881;28;19996;-19
2023/05/22 08:54:08;;;;;;;;;;;;;;;;;;5035682;28;19917;-19
2023/05/22 08:56:34;;;;;;;;;;;;;;;;;;5035667;28;19909;-21
2023/05/22 08:59:00;;;;;;;;;;;;;;;;;;5035502;28;19913;-21
2023/05/22 09:01:26;;;;;;;;;;;;;;;;;;5035880;28;20302;-22
2023/05/22 09:03:52;;;;;;;;;;;;;;;;;;5034185;28;19929;-21
2023/05/22 09:06:18;;;;;;;;;;;;;;;;;;5035338;28;20031;-21
2023/05/22 09:08:44;;;;;;;;;;;;;;;;;;5035631;28;19948;-20
2023/05/22 09:11:11;;;;;;;;;;;;;;;;;;5035355;28;20316;-20
2023/05/22 09:13:37;;;;;;;;;;;;;;;;;;5035451;28;20371;-20
2023/05/22 09:16:03;;;;;;;;;;;;;;;;;;5035457;28;19913;-22
2023/05/22 09:18:30;;;;;;;;;;;;;;;;;;5035022;28;19968;-23
2023/05/22 09:20:55;;;;;;;;;;;;;;;;;;5035589;28;20347;-21
2023/05/22 09:23:22;;;;;;;;;;;;;;;;;;5035480;28;19916;-20
2023/05/22 09:25:48;;;;;;;;;;;;;;;;;;5035671;28;19920;-23
2023/05/22 09:28:14;;;;;;;;;;;;;;;;;;5035585;28;20267;-20
2023/05/22 09:30:41;;;;;;;;;;;;;;;;;;5035447;28;19910;-20
2023/05/22 09:33:07;;;;;;;;;;;;;;;;;;5035639;28;19921;-21
2023/05/22 09:35:33;;;;;;;;;;;;;;;;;;5035500;28;19913;-22
2023/05/22 09:37:59;;;;;;;;;;;;;;;;;;5035554;28;19925;-21
2023/05/22 09:40:25;;;;;;;;;;;;;;;;;;5035521;28;20004;-21
2023/05/22 09:42:51;;;;;;;;;;;;;;;;;;5035239;28;19913;-21
2023/05/22 09:45:17;;;;;;;;;;;;;;;;;;5035341;28;20308;-21
2023/05/22 09:47:44;;;;;;;;;;;;;;;;;;5033999;28;20005;-22
2023/05/22 09:50:10;;;;;;;;;;;;;;;;;;5035122;28;20332;-22
2023/05/22 09:52:36;;;;;;;;;;;;;;;;;;5034791;28;19916;-21
2023/05/22 09:55:03;;;;;;;;;;;;;;;;;;5035153;28;19909;-21
2023/05/22 09:57:29;;;;;;;;;;;;;;;;;;5035052;28;19924;-22
2023/05/22 09:59:57;;;;;;;;;;;;;;;;;;5035049;28;19917;-21
2023/05/22 10:02:23;;;;;;;;;;;;;;;;;;5033718;28;19928;-22
2023/05/22 10:04:49;;;;;;;;;;;;;;;;;;5035293;28;19924;-20
2023/05/22 10:07:15;;;;;;;;;;;;;;;;;;5033957;28;19909;-20
2023/05/22 10:09:41;;;;;;;;;;;;;;;;;;5034980;28;20335;-20
2023/05/22 10:12:07;;;;;;;;;;;;;;;;;;5034730;28;19970;-22
2023/05/22 10:14:33;;;;;;;;;;;;;;;;;;5035257;28;19958;-21
2023/05/22 10:17:01;;;;;;;;;;;;;;;;;;5034612;28;19948;-22
2023/05/22 10:19:29;;;;;;;;;;;;;;;;;;5035337;28;19913;-22
2023/05/22 10:21:56;;;;;;;;;;;;;;;;;;5034612;28;20248;-20
2023/05/22 10:24:22;;;;;;;;;;;;;;;;;;5034659;28;19920;-18
2023/05/22 10:26:48;;;;;;;;;;;;;;;;;;5034604;28;19909;-23
2023/05/22 10:29:14;;;;;;;;;;;;;;;;;;5034452;28;20028;-21
2023/05/22 10:31:43;;;;;;;;;;;;;;;;;;5034681;28;19909;-20
2023/05/22 10:34:09;;;;;;;;;;;;;;;;;;5034298;28;19909;-22
2023/05/22 10:36:35;;;;;;;;;;;;;;;;;;5034192;28;19909;-21
2023/05/22 10:39:01;;;;;;;;;;;;;;;;;;5034541;28;19923;-20
2023/05/22 10:41:27;;;;;;;;;;;;;;;;;;5034319;28;19920;-21
2023/05/22 10:43:53;;;;;;;;;;;;;;;;;;5034483;28;19909;-20
2023/05/22 10:46:19;;;;;;;;;;;;;;;;;;5034278;28;19947;-25
2023/05/22 10:48:45;;;;;;;;;;;;;;;;;;5034383;28;19913;-22
2023/05/22 10:51:11;;;;;;;;;;;;;;;;;;5034095;28;19909;-22
2023/05/22 10:53:37;;;;;;;;;;;;;;;;;;5034074;28;20394;-21
2023/05/22 10:56:03;;;;;;;;;;;;;;;;;;5032817;28;20297;-20
2023/05/22 10:58:29;;;;;;;;;;;;;;;;;;5033497;28;20011;-22
2023/05/22 11:00:55;;;;;;;;;;;;;;;;;;5033369;28;19909;-20
2023/05/22 11:03:21;;;;;;;;;;;;;;;;;;5032023;28;19968;-21
2023/05/22 11:05:47;;;;;;;;;;;;;;;;;;5033608;28;20321;-22
2023/05/22 11:08:13;;;;;;;;;;;;;;;;;;5033512;28;19913;-20
2023/05/22 11:10:39;;;;;;;;;;;;;;;;;;5033190;28;19909;-21
2023/05/22 11:13:05;;;;;;;;;;;;;;;;;;5033235;28;19927;-22
2023/05/22 11:15:31;;;;;;;;;;;;;;;;;;5033187;28;20311;-21
2023/05/22 11:17:57;;;;;;;;;;;;;;;;;;5033409;28;19913;-22
2023/05/22 11:20:23;;;;;;;;;;;;;;;;;;5033186;28;20075;-20
2023/05/22 11:22:49;;;;;;;;;;;;;;;;;;5033435;28;19945;-19
2023/05/22 11:25:16;;;;;;;;;;;;;;;;;;5033485;28;19917;-20
2023/05/22 11:27:42;;;;;;;;;;;;;;;;;;5032855;28;19936;-20
2023/05/22 11:30:08;;;;;;;;;;;;;;;;;;5033620;28;19917;-20
2023/05/22 11:32:34;;;;;;;;;;;;;;;;;;5034200;28;19910;-21
2023/05/22 11:35:00;;;;;;;;;;;;;;;;;;5033996;28;19909;-22
2023/05/22 11:37:26;;;;;;;;;;;;;;;;;;5033621;28;20024;-20
2023/05/22 11:39:52;;;;;;;;;;;;;;;;;;5033659;28;19971;-20
2023/05/22 11:42:18;;;;;;;;;;;;;;;;;;5033709;28;19909;-20
2023/05/22 11:44:45;;;;;;;;;;;;;;;;;;5033767;28;20252;-21
2023/05/22 11:47:11;;;;;;;;;;;;;;;;;;5032793;28;20382;-23
2023/05/22 11:49:36;;;;;;;;;;;;;;;;;;5034013;28;19909;-21
2023/05/22 11:52:02;;;;;;;;;;;;;;;;;;5033716;28;19909;-21
2023/05/22 11:54:28;;;;;;;;;;;;;;;;;;5033800;28;19920;-19
2023/05/22 11:56:54;;;;;;;;;;;;;;;;;;5032653;28;19909;-21
2023/05/22 11:59:20;;;;;;;;;;;;;;;;;;5033917;28;20360;-21
2023/05/22 12:01:46;;;;;;;;;;;;;;;;;;5032317;28;20025;-20
2023/05/22 12:04:13;;;;;;;;;;;;;;;;;;5033286;28;20324;-23
2023/05/22 12:06:39;;;;;;;;;;;;;;;;;;5032595;28;19988;-21
2023/05/22 12:09:06;;;;;;;;;;;;;;;;;;5035985;28;19952;-20
2023/05/22 12:11:32;;;;;;;;;;;;;;;;;;5037185;28;19909;-21
2023/05/22 12:13:57;;;;;;;;;;;;;;;;;;5037181;28;19997;-21
2023/05/22 12:16:24;;;;;;;;;;;;;;;;;;5035976;28;19913;-21
2023/05/22 12:18:50;;;;;;;;;;;;;;;;;;5037293;28;19924;-20
2023/05/22 12:21:16;;;;;;;;;;;;;;;;;;5036953;28;20247;-22
2023/05/22 12:23:42;;;;;;;;;;;;;;;;;;5036487;28;20356;-21
2023/05/22 12:26:08;;;;;;;;;;;;;;;;;;5036437;28;19909;-21
2023/05/22 12:28:34;;;;;;;;;;;;;;;;;;5036270;28;19963;-20
2023/05/22 12:31:00;;;;;;;;;;;;;;;;;;5036398;28;19909;-21
2023/05/22 12:33:26;;;;;;;;;;;;;;;;;;5036260;28;19909;-20
2023/05/22 12:35:52;;;;;;;;;;;;;;;;;;5036450;28;19959;-21
2023/05/22 12:38:18;;;;;;;;;;;;;;;;;;5036935;28;20359;-21
2023/05/22 12:40:45;;;;;;;;;;;;;;;;;;5037259;28;19909;-21
2023/05/22 12:43:11;;;;;;;;;;;;;;;;;;5035157;28;19909;-21
2023/05/22 12:45:40;;;;;;;;;;;;;;;;;;5036362;28;19959;-20
2023/05/22 12:48:06;;;;;;;;;;;;;;;;;;5036416;28;20056;-21
2023/05/22 12:50:31;;;;;;;;;;;;;;;;;;5036580;28;19995;-20
2023/05/22 12:52:57;;;;;;;;;;;;;;;;;;5036026;28;19932;-21
2023/05/22 12:55:23;;;;;;;;;;;;;;;;;;5036369;28;19917;-21
2023/05/22 12:57:49;;;;;;;;;;;;;;;;;;5034960;28;20347;-22
2023/05/22 13:00:15;;;;;;;;;;;;;;;;;;5035865;28;20394;-20
2023/05/22 13:02:41;;;;;;;;;;;;;;;;;;5035849;28;19936;-21
2023/05/22 13:05:07;;;;;;;;;;;;;;;;;;5036018;28;20028;-21
2023/05/22 13:07:33;;;;;;;;;;;;;;;;;;5036266;28;20030;-20
2023/05/22 13:09:59;;;;;;;;;;;;;;;;;;5036257;28;20008;-21
2023/05/22 13:12:26;;;;;;;;;;;;;;;;;;5035915;28;19928;-22
2023/05/22 13:14:52;;;;;;;;;;;;;;;;;;5035867;28;19932;-20
2023/05/22 13:17:18;;;;;;;;;;;;;;;;;;5036127;28;19909;-22
2023/05/22 13:19:43;;;;;;;;;;;;;;;;;;5033973;28;20352;-21
2023/05/22 13:22:09;;;;;;;;;;;;;;;;;;5035701;28;19909;-21
2023/05/22 13:24:35;;;;;;;;;;;;;;;;;;5035971;28;19953;-20
2023/05/22 13:27:01;;;;;;;;;;;;;;;;;;5034553;28;20373;-21
2023/05/22 13:29:27;;;;;;;;;;;;;;;;;;5035588;28;20267;-20
2023/05/22 13:31:53;;;;;;;;;;;;;;;;;;5035637;28;19924;-20
2023/05/22 13:34:19;;;;;;;;;;;;;;;;;;5035640;28;19909;-21
2023/05/22 13:36:45;;;;;;;;;;;;;;;;;;5035719;28;19910;-21
2023/05/22 13:39:11;;;;;;;;;;;;;;;;;;5035784;28;20008;-21
2023/05/22 13:41:37;;;;;;;;;;;;;;;;;;5035375;28;20301;-25
2023/05/22 13:44:03;;;;;;;;;;;;;;;;;;5033972;28;20318;-21
2023/05/22 13:46:29;;;;;;;;;;;;;;;;;;5034933;28;19941;-21
2023/05/22 13:48:55;;;;;;;;;;;;;;;;;;5034136;28;19909;-21
2023/05/22 13:51:21;;;;;;;;;;;;;;;;;;5034104;28;20372;-20
2023/05/22 13:53:47;;;;;;;;;;;;;;;;;;5034117;28;19955;-20
2023/05/22 13:56:13;;;;;;;;;;;;;;;;;;5035096;28;19936;-22
2023/05/22 13:58:39;;;;;;;;;;;;;;;;;;5035173;28;20028;-22
2023/05/22 14:01:05;;;;;;;;;;;;;;;;;;5034151;28;19967;-21
2023/05/22 14:03:31;;;;;;;;;;;;;;;;;;5033611;28;19932;-20
2023/05/22 14:05:57;;;;;;;;;;;;;;;;;;5034871;28;19940;-21
2023/05/22 14:08:23;;;;;;;;;;;;;;;;;;5034971;28;20029;-20
2023/05/22 14:10:49;;;;;;;;;;;;;;;;;;5034847;28;19920;-22
2023/05/22 14:13:15;;;;;;;;;;;;;;;;;;5034976;28;19920;-21
2023/05/22 14:15:42;;;;;;;;;;;;;;;;;;5035180;28;19919;-22
2023/05/22 14:18:07;;;;;;;;;;;;;;;;;;5034828;28;19909;-20
2023/05/22 14:20:33;;;;;;;;;;;;;;;;;;5034774;28;19927;-21
2023/05/22 14:22:59;;;;;;;;;;;;;;;;;;5034713;28;19940;-21
2023/05/22 14:25:25;;;;;;;;;;;;;;;;;;5034720;28;20380;-24
2023/05/22 14:27:51;;;;;;;;;;;;;;;;;;5034467;28;20356;-22
2023/05/22 14:30:17;;;;;;;;;;;;;;;;;;5034271;28;20004;-20
2023/05/22 14:32:44;;;;;;;;;;;;;;;;;;5033247;28;20008;-20
2023/05/22 14:35:11;;;;;;;;;;;;;;;;;;5034415;28;20328;-20
2023/05/22 14:37:37;;;;;;;;;;;;;;;;;;5034523;28;19909;-21
2023/05/22 14:40:03;;;;;;;;;;;;;;;;;;5034334;28;20261;-20
2023/05/22 14:42:29;;;;;;;;;;;;;;;;;;5034311;28;20358;-20
2023/05/22 14:44:55;;;;;;;;;;;;;;;;;;5034228;28;19981;-23
2023/05/22 14:47:21;;;;;;;;;;;;;;;;;;5034295;28;20232;-22
2023/05/22 14:49:47;;;;;;;;;;;;;;;;;;5034161;28;19909;-21
2023/05/22 14:52:13;;;;;;;;;;;;;;;;;;5034356;28;19909;-20
2023/05/22 14:54:39;;;;;;;;;;;;;;;;;;5032792;28;19924;-20
2023/05/22 14:57:05;;;;;;;;;;;;;;;;;;5034197;28;19916;-19
2023/05/22 14:59:32;;;;;;;;;;;;;;;;;;5034343;28;19948;-20
2023/05/22 15:01:58;;;;;;;;;;;;;;;;;;5034003;28;20263;-19
2023/05/22 15:04:24;;;;;;;;;;;;;;;;;;5033854;28;20007;-22
2023/05/22 15:06:50;;;;;;;;;;;;;;;;;;5034044;28;19945;-22
2023/05/22 15:09:16;;;;;;;;;;;;;;;;;;5034041;28;19909;-22
2023/05/22 15:11:45;;;;;;;;;;;;;;;;;;5033751;28;19909;-21
2023/05/22 15:14:11;;;;;;;;;;;;;;;;;;5033482;28;19972;-20
2023/05/22 15:16:37;;;;;;;;;;;;;;;;;;5031781;28;19917;-23
2023/05/22 15:19:03;;;;;;;;;;;;;;;;;;5032720;28;19917;-22
2023/05/22 15:21:30;;;;;;;;;;;;;;;;;;5033081;28;19909;-20
2023/05/22 15:23:56;;;;;;;;;;;;;;;;;;5032807;28;19975;-21
2023/05/22 15:26:22;;;;;;;;;;;;;;;;;;5032914;28;20263;-20
2023/05/22 15:28:48;;;;;;;;;;;;;;;;;;5032936;28;20002;-21
2023/05/22 15:31:14;;;;;;;;;;;;;;;;;;5032637;28;19914;-22
2023/05/22 15:33:39;;;;;;;;;;;;;;;;;;5032599;28;19917;-21
2023/05/22 15:36:06;;;;;;;;;;;;;;;;;;5033302;28;19935;-20
2023/05/22 15:38:31;;;;;;;;;;;;;;;;;;5032358;28;19996;-21
2023/05/22 15:40:57;;;;;;;;;;;;;;;;;;5033908;28;19940;-19
2023/05/22 15:43:23;;;;;;;;;;;;;;;;;;5035015;28;19913;-22
2023/05/22 15:45:49;;;;;;;;;;;;;;;;;;5037656;28;19913;-22
2023/05/22 15:48:15;;;;;;;;;;;;;;;;;;5037538;28;20340;-22
2023/05/22 15:50:41;;;;;;;;;;;;;;;;;;5037252;28;19913;-20
2023/05/22 15:53:07;;;;;;;;;;;;;;;;;;5037538;28;19953;-20
2023/05/22 15:55:33;;;;;;;;;;;;;;;;;;5037182;28;19913;-19
2023/05/22 15:57:59;;;;;;;;;;;;;;;;;;5037008;28;20382;-20
2023/05/22 16:00:25;;;;;;;;;;;;;;;;;;5035859;28;20379;-22
2023/05/22 16:02:51;;;;;;;;;;;;;;;;;;5036742;28;19921;-20
2023/05/22 16:05:17;;;;;;;;;;;;;;;;;;5035930;28;20044;-20
2023/05/22 16:07:43;;;;;;;;;;;;;;;;;;5037268;28;19920;-21
2023/05/22 16:10:09;;;;;;;;;;;;;;;;;;5037209;28;19936;-21
2023/05/22 16:12:35;;;;;;;;;;;;;;;;;;5036866;28;20008;-22
2023/05/22 16:15:01;;;;;;;;;;;;;;;;;;5036831;28;19952;-20
2023/05/22 16:17:27;;;;;;;;;;;;;;;;;;5036854;28;19909;-22
2023/05/22 16:19:53;;;;;;;;;;;;;;;;;;5036880;28;19956;-21
2023/05/22 16:22:20;;;;;;;;;;;;;;;;;;5036617;28;19909;-19
2023/05/22 16:24:46;;;;;;;;;;;;;;;;;;5037740;28;19916;-21
2023/05/22 16:27:11;;;;;;;;;;;;;;;;;;5036604;28;20007;-20
2023/05/22 16:29:37;;;;;;;;;;;;;;;;;;5036663;28;19924;-20
2023/05/22 16:32:03;;;;;;;;;;;;;;;;;;5036629;28;19916;-20
2023/05/22 16:34:32;;;;;;;;;;;;;;;;;;5036388;28;20007;-21
2023/05/22 16:36:58;;;;;;;;;;;;;;;;;;5036312;28;19972;-20
2023/05/22 16:39:24;;;;;;;;;;;;;;;;;;5036288;28;20005;-19